Latest Weather Observations for Learmonth

IDW60801

Issued at 4:33 pm WST Saturday 16 December 2017 (issued every 30 minutes, with the page automatically refreshed every 10 minutes)

About weather observations | Map of weather stations | Latest weather observations for WA | Other Formats
Station Details ID: 005007 Name: LEARMONTH AIRPORT Lat: -22.24 Lon: 114.10 Height: 5.0 m
Data from the previous 72 hours. | See also: Recent months at Learmonth
Date/Time
WST
Temp
°C
App
Temp
°C
Dew
Point
°C
Rel
Hum
%
Delta-T
°C
Wind Press
QNH
hPa
Press
MSL
hPa
Rain since
9am
mm
Dir  Spd
km/h
Gust
km/h
Spd
kts
Gust
kts
16/04:30pm 29.6 25.8 17.1 47 7.9 SW 33 41 18 22 1008.0 - 0.0
16/04:00pm 30.3 25.9 16.7 44 8.6 WSW 35 46 19 25 1008.1 - 0.0
16/03:33pm 30.7 26.4 17.0 43 8.7 WSW 35 61 19 33 1008.1 - 0.0
16/03:30pm 30.6 26.3 17.0 44 8.6 SW 35 44 19 24 1008.2 - 0.0
16/03:00pm 31.2 27.0 17.1 42 8.9 WSW 35 43 19 23 1008.4 1008.3 0.0
16/02:50pm 32.4 28.6 17.1 40 9.7 WSW 33 52 18 28 1008.5 - 0.0
16/02:30pm 31.3 27.5 17.2 42 8.9 WSW 33 44 18 24 1008.6 - 0.0
16/02:00pm 32.2 28.9 16.9 40 9.7 WSW 30 44 16 24 1008.8 - 0.0
16/01:51pm 30.7 27.1 16.3 42 9.0 WSW 30 48 16 26 1008.8 - 0.0
16/01:30pm 32.1 28.2 16.4 39 9.9 WSW 32 44 17 24 1008.8 - 0.0
16/01:00pm 31.3 28.0 16.1 40 9.5 W 28 37 15 20 1009.3 - 0.0
16/12:30pm 31.8 28.8 16.9 40 9.4 WSW 28 41 15 22 1009.5 - 0.0
16/12:09pm 31.4 28.3 16.6 41 9.3 W 28 46 15 25 1009.7 - 0.0
16/12:00pm 31.1 27.3 16.7 42 9.1 SW 32 43 17 23 1009.9 1009.8 0.0
16/11:30am 31.4 28.7 16.6 41 9.3 SW 26 41 14 22 1010.1 - 0.0
16/11:00am 30.7 28.3 16.3 42 9.0 WSW 24 37 13 20 1010.6 - 0.0
16/10:30am 29.6 27.2 16.4 45 8.2 WSW 24 33 13 18 1010.5 - 0.0
16/10:00am 29.5 27.4 16.3 45 8.2 SW 22 37 12 20 1010.8 - 0.0
16/09:30am 28.9 27.6 16.8 48 7.6 SW 19 33 10 18 1011.0 - 0.0
16/09:00am 27.3 25.1 16.9 53 6.5 SW 24 32 13 17 1010.9 1010.8 0.0
16/08:30am 26.2 25.3 17.8 60 5.3 SSW 19 30 10 16 1011.1 - 0.0
16/08:00am 24.9 22.2 17.6 64 4.6 SSW 28 35 15 19 1010.8 - 0.0
16/07:30am 23.2 22.2 17.6 71 3.5 SW 19 28 10 15 1011.2 - 0.0
16/07:00am 22.4 21.9 17.8 75 2.9 SSW 17 24 9 13 1010.8 - 0.0
16/06:30am 21.6 21.5 17.8 79 2.4 SSW 15 19 8 10 1010.3 - 0.0
16/06:00am 20.1 19.9 17.7 86 1.5 SW 15 20 8 11 1009.7 1009.6 0.0
16/05:30am 19.5 19.3 17.5 88 1.2 SSW 15 19 8 10 1009.2 - 0.0
16/05:00am 19.9 19.4 17.7 87 1.4 SSW 17 22 9 12 1008.9 - 0.0
16/04:30am 20.1 19.6 17.7 86 1.5 SSW 17 20 9 11 1008.9 - 0.0
16/04:00am 20.4 19.9 17.8 85 1.6 SSW 17 22 9 12 1008.7 - 0.0
16/03:30am 20.5 19.6 17.7 84 1.7 SW 19 24 10 13 1008.7 - 0.0
16/03:00am 20.6 19.1 17.8 84 1.7 SW 22 28 12 15 1008.4 1008.3 0.0
16/02:30am 20.9 19.6 18.1 84 1.7 SSW 22 28 12 15 1008.2 - 0.0
16/02:00am 21.0 19.8 18.4 85 1.6 SSW 22 28 12 15 1008.2 - 0.0
16/01:30am 21.3 20.7 18.9 86 1.5 SSW 20 26 11 14 1008.3 - 0.0
16/01:00am 21.6 20.6 18.8 84 1.8 SSW 22 32 12 17 1008.5 - 0.0
16/12:30am 22.0 20.3 19.0 83 1.9 SSW 26 33 14 18 1008.6 - 0.0
16/12:00am 22.2 20.6 19.2 83 1.9 SSW 26 33 14 18 1008.9 1008.8 0.0
 
Date/Time
WST
Temp
°C
App
Temp
°C
Dew
Point
°C
Rel
Hum
%
Delta-T
°C
Wind Press
QNH
hPa
Press
MSL
hPa
Rain since
9am
mm
Dir  Spd
km/h
Gust
km/h
Spd
kts
Gust
kts
15/11:30pm 22.5 20.6 19.3 82 2.0 SSW 28 35 15 19 1009.1 - 0.0
15/11:00pm 22.7 20.8 19.3 81 2.2 SSW 28 35 15 19 1009.3 - 0.0
15/10:30pm 23.0 20.7 19.4 80 2.3 SSW 30 37 16 20 1009.2 - 0.0
15/10:00pm 23.2 21.7 19.4 79 2.4 SSW 26 35 14 19 1009.1 - 0.0
15/09:30pm 23.6 22.4 19.3 77 2.7 SW 24 33 13 18 1009.2 - 0.0
15/09:00pm 23.9 21.9 19.2 75 3.0 SW 28 39 15 21 1009.0 1008.9 0.0
15/08:30pm 24.4 22.6 19.5 74 3.1 SW 28 43 15 23 1008.7 - 0.0
15/08:00pm 24.9 22.5 19.0 69 3.8 SW 30 39 16 21 1008.5 - 0.0
15/07:30pm 25.8 23.1 18.5 64 4.6 SW 30 43 16 23 1008.1 - 0.0
15/07:00pm 26.9 23.7 18.2 59 5.5 WSW 32 39 17 21 1007.8 - 0.0
15/06:30pm 28.6 25.1 17.5 51 7.0 WSW 32 39 17 21 1007.6 - 0.0
15/06:00pm 30.3 26.9 16.7 44 8.6 WSW 30 41 16 22 1007.4 1007.3 0.0
15/05:30pm 31.2 26.8 15.6 39 9.7 SW 33 41 18 22 1007.1 - 0.0
15/05:00pm 32.6 28.0 14.7 34 11.0 SW 32 41 17 22 1006.7 - 0.0
15/04:30pm 34.0 28.8 13.5 29 12.4 WSW 33 41 18 22 1006.4 - 0.0
15/04:00pm 34.8 30.0 13.0 26 13.2 WSW 30 39 16 21 1006.2 - 0.0
15/03:30pm 35.8 30.9 11.4 23 14.5 SW 28 39 15 21 1006.3 - 0.0
15/03:00pm 36.6 32.3 12.1 23 14.7 SW 26 37 14 20 1006.4 1006.3 0.0
15/02:30pm 36.8 32.0 12.9 24 14.5 SW 30 39 16 21 1006.4 - 0.0
15/02:00pm 36.1 31.3 11.7 23 14.5 WSW 28 37 15 20 1006.6 - 0.0
15/01:36pm 36.7 32.7 14.1 26 14.0 SW 28 46 15 25 1006.6 - 0.0
15/01:30pm 36.0 31.6 12.9 25 14.0 WSW 28 37 15 20 1006.7 - 0.0
15/01:00pm 37.0 33.5 15.5 28 13.6 SW 28 43 15 23 1006.8 - 0.0
15/12:30pm 36.1 33.3 16.3 31 12.6 SW 26 39 14 21 1007.3 - 0.0
15/12:00pm 35.9 31.6 12.2 24 14.2 WSW 26 35 14 19 1007.5 1007.4 0.0
15/11:30am 36.6 32.3 12.1 23 14.7 WSW 26 35 14 19 1007.9 - 0.0
15/11:00am 35.4 32.2 13.0 26 13.6 SW 22 35 12 19 1008.3 - 0.0
15/10:30am 34.0 31.5 14.0 30 12.2 SW 20 32 11 17 1008.6 - 0.0
15/10:00am 33.0 29.9 14.6 33 11.3 WSW 24 33 13 18 1008.8 - 0.0
15/09:30am 32.2 30.3 15.7 37 10.3 WSW 20 28 11 15 1009.0 - 0.0
15/09:00am 31.6 29.4 16.0 39 9.8 WSW 22 30 12 16 1009.2 1009.1 0.0
15/08:30am 29.7 27.6 17.2 47 7.9 WSW 24 32 13 17 1009.2 - 0.0
15/08:00am 28.1 26.1 17.3 52 6.8 WSW 24 32 13 17 1009.4 - 0.0
15/07:30am 26.8 25.3 17.6 57 5.8 WSW 22 30 12 16 1009.3 - 0.0
15/07:00am 25.5 23.5 17.4 61 5.1 WSW 24 30 13 16 1009.0 - 0.0
15/06:30am 24.6 23.6 17.6 65 4.4 WSW 19 24 10 13 1008.9 - 0.0
15/06:00am 23.3 22.8 17.7 71 3.5 WSW 17 22 9 12 1008.4 1008.3 0.0
15/05:30am 22.7 21.8 17.8 74 3.0 WSW 19 22 10 12 1007.9 - 0.0
15/05:00am 22.8 21.9 17.7 73 3.2 SW 19 24 10 13 1007.7 - 0.0
15/04:30am 23.1 22.1 17.6 71 3.4 SW 19 22 10 12 1007.4 - 0.0
15/04:00am 23.7 22.5 17.4 68 3.9 SW 20 28 11 15 1007.2 - 0.0
15/03:30am 23.5 22.1 17.9 71 3.5 SW 22 28 12 15 1007.1 - 0.0
15/03:00am 23.1 21.9 18.4 75 3.0 SW 22 28 12 15 1007.0 1006.9 0.0
15/02:30am 23.1 22.5 18.8 77 2.7 SSW 20 28 11 15 1006.9 - 0.0
15/02:00am 23.3 22.5 19.2 78 2.6 SSW 22 30 12 16 1007.0 - 0.0
15/01:30am 23.5 22.3 19.2 77 2.7 SSW 24 32 13 17 1007.2 - 0.0
15/01:00am 23.9 22.3 19.2 75 3.0 SSW 26 35 14 19 1007.5 - 0.0
15/12:30am 24.2 23.4 19.3 74 3.1 SW 22 30 12 16 1007.8 - 0.0
15/12:00am 24.6 23.8 19.2 72 3.5 SW 22 30 12 16 1008.0 1007.9 0.0
 
Date/Time
WST
Temp
°C
App
Temp
°C
Dew
Point
°C
Rel
Hum
%
Delta-T
°C
Wind Press
QNH
hPa
Press
MSL
hPa
Rain since
9am
mm
Dir  Spd
km/h
Gust
km/h
Spd
kts
Gust
kts
14/11:30pm 24.8 24.0 19.2 71 3.6 SW 22 32 12 17 1008.0 - 0.0
14/11:00pm 25.0 23.9 18.7 68 4.0 SW 22 28 12 15 1008.4 - 0.0
14/10:30pm 25.3 24.1 18.5 66 4.3 SW 22 28 12 15 1008.6 - 0.0
14/10:00pm 25.6 24.0 18.3 64 4.6 SW 24 30 13 16 1008.6 - 0.0
14/09:30pm 26.0 23.8 17.9 61 5.1 SW 26 33 14 18 1008.2 - 0.0
14/09:00pm 26.0 23.7 18.4 63 4.8 WSW 28 37 15 20 1008.2 1008.1 0.0
14/08:30pm 26.3 24.7 19.2 65 4.6 SW 26 33 14 18 1008.0 - 0.0
14/08:00pm 26.7 24.7 19.1 63 4.9 WSW 28 35 15 19 1007.8 - 0.0
14/07:30pm 27.2 25.1 19.8 64 4.8 WSW 30 37 16 20 1007.5 - 0.0
14/07:00pm 28.1 26.2 20.1 62 5.2 WSW 30 35 16 19 1007.1 - 0.0
14/06:30pm 29.9 27.5 19.9 55 6.6 W 32 39 17 21 1006.7 - 0.0
14/06:00pm 31.4 29.5 19.4 49 7.9 W 28 37 15 20 1006.3 1006.2 0.0
14/05:30pm 32.2 29.4 19.1 45 8.6 W 32 41 17 22 1006.1 - 0.0
14/05:00pm 33.7 30.7 18.6 40 9.8 W 32 41 17 22 1005.9 - 0.0
14/04:30pm 34.7 31.5 18.7 38 10.5 W 33 41 18 22 1005.6 - 0.0
14/04:00pm 35.7 32.5 18.7 36 11.2 W 33 43 18 23 1005.6 - 0.0
14/03:30pm 35.8 33.1 18.4 35 11.4 W 30 37 16 20 1005.8 - 0.0
14/03:00pm 37.2 33.6 17.2 30 13.0 W 32 37 17 20 1005.9 1005.8 0.0
14/02:30pm 38.8 37.1 15.8 25 14.7 NW 19 35 10 19 1006.0 - 0.0
14/02:00pm 39.0 34.9 4.4 12 18.7 NNE 15 19 8 10 1006.2 - 0.0
14/01:30pm 38.8 34.2 5.4 13 18.3 ENE 19 22 10 12 1006.5 - 0.0
14/01:00pm 38.2 34.5 8.0 16 17.2 ENE 17 20 9 11 1006.9 - 0.0
14/12:30pm 38.6 35.5 7.4 15 17.6 ESE 13 22 7 12 1007.3 - 0.0
14/12:00pm 37.7 33.3 7.6 16 17.0 SE 20 32 11 17 1007.7 1007.6 0.0
14/11:30am 37.2 34.5 8.9 18 16.2 S 13 26 7 14 1008.2 - 0.0
14/11:00am 35.8 32.6 10.1 21 14.9 S 17 30 9 16 1008.6 - 0.0
14/10:30am 35.4 32.5 11.1 23 14.3 S 17 24 9 13 1008.9 - 0.0
14/10:00am 33.1 29.4 11.6 27 12.6 S 22 30 12 16 1009.2 - 0.0
14/09:30am 31.5 27.7 12.3 31 11.3 S 24 32 13 17 1009.4 - 0.0
14/09:00am 30.2 26.2 13.0 34 10.2 S 26 39 14 21 1009.6 1009.5 0.0
14/08:30am 28.5 24.9 14.3 41 8.5 SSW 26 30 14 16 1009.9 - 0.0
14/08:00am 27.0 23.7 15.1 48 7.2 SSW 26 37 14 20 1009.9 - 0.0
14/07:30am 24.5 21.3 16.2 60 5.1 SSW 28 37 15 20 1009.9 - 0.0
14/07:00am 23.2 19.7 16.5 66 4.1 SSW 30 39 16 21 1009.8 - 0.0
14/06:30am 21.8 19.1 16.5 72 3.2 SSW 26 33 14 18 1009.7 - 0.0
14/06:00am 20.7 18.3 16.5 77 2.5 SW 24 32 13 17 1009.7 1009.6 0.0
14/05:30am 20.2 18.3 16.6 80 2.2 SSW 22 28 12 15 1009.5 - 0.0
14/05:00am 20.4 18.8 16.6 79 2.3 SSW 20 28 11 15 1009.2 - 0.0
14/04:30am 20.7 18.7 16.5 77 2.5 SSW 22 28 12 15 1009.0 - 0.0
14/04:00am 20.9 19.0 16.7 77 2.5 SW 22 30 12 16 1008.9 - 0.0
14/03:30am 21.2 19.0 16.8 76 2.7 SSW 24 32 13 17 1008.8 - 0.0
14/03:00am 21.5 19.0 17.1 76 2.7 SW 26 35 14 19 1008.7 1008.6 0.0
14/02:30am 21.8 19.0 17.4 76 2.7 SSW 28 35 15 19 1008.7 - 0.0
14/02:00am 22.0 18.9 17.4 75 2.8 SSW 30 39 16 21 1008.8 - 0.0
14/01:30am 22.4 19.3 17.5 74 3.0 SSW 30 41 16 22 1008.9 - 0.0
14/01:00am 22.8 19.2 17.7 73 3.2 SSW 33 41 18 22 1008.9 - 0.0
14/12:30am 23.3 20.2 17.5 70 3.6 SW 30 39 16 21 1009.1 - 0.0
14/12:00am 23.7 20.3 17.7 69 3.7 SSW 32 41 17 22 1009.3 1009.2 0.0
 
Date/Time
WST
Temp
°C
App
Temp
°C
Dew
Point
°C
Rel
Hum
%
Delta-T
°C
Wind Press
QNH
hPa
Press
MSL
hPa
Rain since
9am
mm
Dir  Spd
km/h
Gust
km/h
Spd
kts
Gust
kts
13/11:30pm 24.1 21.5 17.8 68 3.9 SSW 28 37 15 20 1009.5 - 0.0
13/11:00pm 24.4 21.5 17.9 67 4.1 SW 30 39 16 21 1009.7 - 0.0
13/10:30pm 24.5 21.6 18.0 67 4.1 SW 30 39 16 21 1009.7 - 0.0
13/10:00pm 24.9 22.0 17.9 65 4.4 SW 30 43 16 23 1009.7 - 0.0
13/09:30pm 25.3 21.7 17.7 62 4.8 SW 33 46 18 25 1009.4 - 0.0
13/09:00pm 25.5 22.0 17.9 63 4.8 SW 33 44 18 24 1009.2 1009.1 0.0
13/08:30pm 25.9 22.5 18.1 62 4.9 SW 33 41 18 22 1009.0 - 0.0
13/08:00pm 26.4 22.9 18.0 60 5.3 SW 33 44 18 24 1008.8 - 0.0
13/07:45pm 26.7 23.7 17.7 57 5.7 SW 30 41 16 22 1008.6 - 0.0
13/07:30pm 27.0 23.0 17.5 56 6.0 SW 35 44 19 24 1008.5 - 0.0
13/07:00pm 28.2 24.0 17.1 51 7.0 SW 35 44 19 24 1008.0 - 0.0
13/06:30pm 29.8 25.4 16.6 45 8.3 SW 35 48 19 26 1007.6 - 0.0
13/06:00pm 31.4 26.0 15.0 37 10.1 SW 37 50 20 27 1007.5 1007.4 0.0
13/05:30pm 32.8 27.0 14.9 34 11.0 SW 39 48 21 26 1007.2 - 0.0
13/05:00pm 34.3 28.4 13.7 29 12.6 SW 37 46 20 25 1007.0 - 0.0
13/04:45pm 34.6 28.5 12.9 27 13.1 SW 37 52 20 28 1006.8 - 0.0

Other Formats:

Comma delimited format used in spreadsheet applications
http://www.bom.gov.au/fwo/IDW60801/IDW60801.94302.axf

JavaScript Object Notation format (JSON) in row-major order
http://www.bom.gov.au/fwo/IDW60801/IDW60801.94302.json